Time;durP1;ratioP1;P1;durP2;ratioP2;P2;SDS_P1;SDS_P2;PMS_P1;PMS_P2;Temp;Humidity;BMP_temperature;BMP_pressure;BME280_temperature;BME280_humidity;BME280_pressure;Samples;Min_cycle;Max_cycle;Signal;HPM_P1;HPM_P2
2021/10/07 00:00:48;;;;;;;43.17;30.33;;;11.90;99.90;;;;;;5072721;28;20181;-64
2021/10/07 00:03:13;;;;;;;50.67;31.07;;;11.90;99.90;;;;;;5058252;28;20228;-64
2021/10/07 00:05:39;;;;;;;47.60;30.90;;;12.00;99.90;;;;;;5052418;28;20226;-64
2021/10/07 00:08:06;;;;;;;50.37;34.70;;;12.00;99.90;;;;;;5065217;28;20527;-64
2021/10/07 00:10:32;;;;;;;42.30;30.23;;;12.00;99.90;;;;;;5072551;28;20178;-64
2021/10/07 00:12:57;;;;;;;52.43;31.40;;;12.10;99.90;;;;;;5061653;28;20251;-64
2021/10/07 00:15:23;;;;;;;48.03;31.57;;;12.10;99.90;;;;;;5052600;28;20665;-64
2021/10/07 00:17:49;;;;;;;47.20;31.97;;;12.10;99.90;;;;;;5061590;28;20271;-64
2021/10/07 00:20:16;;;;;;;41.67;31.53;;;12.10;99.90;;;;;;5072202;28;20174;-64
2021/10/07 00:22:43;;;;;;;46.47;30.70;;;12.20;99.90;;;;;;5065198;28;20189;-64
2021/10/07 00:25:10;;;;;;;46.90;28.83;;;12.20;99.90;;;;;;5052575;28;20202;-64
2021/10/07 00:27:36;;;;;;;50.67;29.43;;;12.20;99.90;;;;;;5057936;28;20188;-64
2021/10/07 00:30:18;;;;;;;50.87;30.17;;;12.20;99.90;;;;;;5069838;28;20170;-64
2021/10/07 00:40:23;;;;;;;47.77;37.47;;;12.30;99.90;;;;;;5068125;28;20179;-64
2021/10/07 00:42:48;;;;;;;41.97;30.70;;;12.40;99.90;;;;;;5052212;28;20181;-64
2021/10/07 00:45:15;;;;;;;46.67;31.67;;;12.40;99.90;;;;;;5053730;28;20201;-64
2021/10/07 00:47:40;;;;;;;43.47;27.53;;;12.40;99.90;;;;;;5072341;28;20655;-64
2021/10/07 00:50:07;;;;;;;41.77;27.97;;;12.40;99.90;;;;;;5071554;28;20216;-64
2021/10/07 00:52:32;;;;;;;44.13;27.80;;;12.40;99.90;;;;;;5052019;28;20652;-64
2021/10/07 00:54:58;;;;;;;39.37;28.07;;;12.40;99.90;;;;;;5051897;28;20214;-64
2021/10/07 00:57:24;;;;;;;42.27;27.80;;;12.40;99.90;;;;;;5053117;28;20190;-64
2021/10/07 00:59:51;;;;;;;50.67;30.27;;;12.40;99.90;;;;;;5051838;28;20598;-64
2021/10/07 01:02:18;;;;;;;47.87;29.07;;;12.40;99.90;;;;;;5068243;28;20178;-64
2021/10/07 01:04:44;;;;;;;45.23;29.87;;;12.50;99.90;;;;;;5052936;28;20222;-64
2021/10/07 01:07:11;;;;;;;43.30;29.53;;;12.50;99.90;;;;;;5066833;28;20182;-64
2021/10/07 01:09:39;;;;;;;44.50;29.77;;;12.50;99.90;;;;;;5067265;28;20206;-64
2021/10/07 01:12:05;;;;;;;47.30;29.63;;;12.50;99.90;;;;;;5051651;28;20181;-64
2021/10/07 01:14:36;;;;;;;45.60;28.53;;;12.60;99.90;;;;;;5054079;28;20281;-64
2021/10/07 01:17:02;;;;;;;43.73;29.80;;;12.50;99.90;;;;;;5071851;28;20182;-64
2021/10/07 01:19:28;;;;;;;38.23;27.97;;;12.50;99.90;;;;;;5069533;28;20173;-64
2021/10/07 01:21:54;;;;;;;36.57;26.87;;;12.50;99.90;;;;;;5051625;28;20174;-64
2021/10/07 01:24:20;;;;;;;42.97;31.10;;;12.50;99.90;;;;;;5052466;28;20194;-64
2021/10/07 01:26:45;;;;;;;41.13;29.73;;;12.60;99.90;;;;;;5051734;28;20249;-64
2021/10/07 01:29:11;;;;;;;42.77;30.53;;;12.60;99.90;;;;;;5049987;28;20182;-64
2021/10/07 01:31:37;;;;;;;43.27;28.77;;;12.60;99.90;;;;;;5071505;28;20658;-64
2021/10/07 01:34:02;;;;;;;38.97;28.13;;;12.60;99.90;;;;;;5071438;28;20233;-64
2021/10/07 01:36:28;;;;;;;51.17;30.63;;;12.70;99.90;;;;;;5052625;28;20229;-64
2021/10/07 01:38:53;;;;;;;42.20;29.20;;;12.70;99.90;;;;;;5051460;28;20238;-64
2021/10/07 01:41:19;;;;;;;38.10;28.73;;;12.70;99.90;;;;;;5067748;28;20184;-64
2021/10/07 01:43:44;;;;;;;44.30;29.13;;;12.70;99.90;;;;;;5071402;28;20236;-64
2021/10/07 01:46:10;;;;;;;47.10;27.63;;;12.70;99.90;;;;;;5056600;28;20210;-64
2021/10/07 01:48:36;;;;;;;39.27;27.07;;;12.70;99.90;;;;;;5054674;28;20179;-64
2021/10/07 01:51:02;;;;;;;43.00;26.60;;;12.80;99.90;;;;;;5068255;28;20195;-64
2021/10/07 01:53:27;;;;;;;45.13;28.13;;;12.90;99.90;;;;;;5066621;28;20582;-64
2021/10/07 01:55:53;;;;;;;47.77;28.60;;;12.90;99.90;;;;;;5055181;28;20206;-64
2021/10/07 01:58:20;;;;;;;40.70;26.47;;;13.00;99.90;;;;;;5061953;28;20261;-64
2021/10/07 02:00:45;;;;;;;36.57;26.07;;;13.00;99.90;;;;;;5075107;28;20188;-64
2021/10/07 02:03:11;;;;;;;40.90;27.90;;;13.00;99.90;;;;;;5069712;28;20660;-64
2021/10/07 02:05:36;;;;;;;40.50;27.50;;;13.00;99.90;;;;;;5054833;28;20664;-64
2021/10/07 02:08:02;;;;;;;43.57;27.50;;;13.00;99.90;;;;;;5059599;28;20228;-64
2021/10/07 02:10:28;;;;;;;41.47;28.57;;;13.10;99.90;;;;;;5054783;28;20190;-64
2021/10/07 02:12:54;;;;;;;46.17;29.47;;;13.10;99.90;;;;;;5061646;28;20372;-63
2021/10/07 02:15:19;;;;;;;36.70;26.27;;;13.10;99.90;;;;;;5075208;28;20278;-64
2021/10/07 02:17:45;;;;;;;43.53;28.90;;;13.10;99.90;;;;;;5070104;28;20170;-63
2021/10/07 02:20:11;;;;;;;45.87;29.43;;;13.00;99.90;;;;;;5054618;28;20179;-64
2021/10/07 02:22:39;;;;;;;56.23;30.37;;;13.00;99.90;;;;;;5070856;28;20261;-67
2021/10/07 02:25:06;;;;;;;55.50;29.50;;;13.00;99.90;;;;;;5075738;28;20244;-68
2021/10/07 02:27:31;;;;;;;52.53;30.13;;;13.00;99.90;;;;;;5061327;28;20541;-67
2021/10/07 02:29:57;;;;;;;51.23;30.27;;;13.00;99.90;;;;;;5055518;28;20225;-66
2021/10/07 02:32:23;;;;;;;55.00;30.67;;;13.00;99.90;;;;;;5068141;28;20181;-68
2021/10/07 02:34:48;;;;;;;47.97;30.13;;;13.00;99.90;;;;;;5075460;28;20213;-66
2021/10/07 02:37:14;;;;;;;53.90;31.20;;;12.90;99.90;;;;;;5063255;28;20187;-68
2021/10/07 02:39:40;;;;;;;51.77;29.57;;;12.90;99.90;;;;;;5055323;28;20182;-68
2021/10/07 02:42:06;;;;;;;55.63;29.67;;;12.90;99.90;;;;;;5064201;28;20182;-67
2021/10/07 02:44:31;;;;;;;63.73;31.30;;;12.80;99.90;;;;;;5075269;28;20275;-68
2021/10/07 02:46:57;;;;;;;58.40;31.80;;;12.80;99.90;;;;;;5067728;28;20206;-67
2021/10/07 02:49:23;;;;;;;71.07;32.10;;;12.80;99.90;;;;;;5055221;28;20186;-69
2021/10/07 02:51:48;;;;;;;70.40;34.73;;;12.90;99.90;;;;;;5061511;28;20190;-67
2021/10/07 02:54:14;;;;;;;66.13;35.03;;;12.90;99.90;;;;;;5075806;28;20586;-66
2021/10/07 02:56:40;;;;;;;74.47;34.13;;;12.90;99.90;;;;;;5072056;28;20175;-67
2021/10/07 02:59:06;;;;;;;84.60;33.40;;;12.80;99.90;;;;;;5055780;28;20175;-67
2021/10/07 03:01:31;;;;;;;74.37;30.47;;;12.80;99.90;;;;;;5057900;28;20718;-67
2021/10/07 03:03:57;;;;;;;75.67;34.67;;;12.80;99.90;;;;;;5075528;28;20174;-68
2021/10/07 03:06:22;;;;;;;73.77;35.33;;;12.80;99.90;;;;;;5064030;28;20197;-66
2021/10/07 03:08:48;;;;;;;88.60;34.57;;;12.80;99.90;;;;;;5058275;28;20660;-67
2021/10/07 03:11:15;;;;;;;73.33;32.37;;;12.80;99.90;;;;;;5075723;28;20225;-66
2021/10/07 03:13:40;;;;;;;80.23;38.77;;;12.80;99.90;;;;;;5074825;28;20227;-67
2021/10/07 03:16:06;;;;;;;87.00;39.80;;;12.70;99.90;;;;;;5058191;28;20237;-70
2021/10/07 03:18:32;;;;;;;81.37;35.60;;;12.70;99.90;;;;;;5074553;28;20227;-66
2021/10/07 03:20:57;;;;;;;73.97;31.47;;;12.70;99.90;;;;;;5055328;28;20258;-67
2021/10/07 03:23:23;;;;;;;80.90;33.60;;;12.80;99.90;;;;;;5056551;28;20869;-67
2021/10/07 03:25:48;;;;;;;74.57;32.67;;;12.80;99.90;;;;;;5055326;28;20280;-67
2021/10/07 03:28:14;;;;;;;92.60;34.97;;;12.80;99.90;;;;;;5071236;28;20196;-69
2021/10/07 03:30:40;;;;;;;102.80;37.43;;;12.70;99.90;;;;;;5075024;28;20235;-67
2021/10/07 03:33:06;;;;;;;80.23;36.03;;;12.80;99.90;;;;;;5060538;28;20646;-68
2021/10/07 03:35:33;;;;;;;87.67;37.57;;;12.80;99.90;;;;;;5055312;28;20242;-68
2021/10/07 03:37:59;;;;;;;84.63;35.93;;;12.80;99.90;;;;;;5065489;28;20204;-71
2021/10/07 03:40:25;;;;;;;87.90;35.03;;;12.70;99.90;;;;;;5057500;28;20186;-67
2021/10/07 03:42:50;;;;;;;83.57;34.27;;;12.70;99.90;;;;;;5066114;28;20602;-68
2021/10/07 03:45:16;;;;;;;92.50;37.07;;;12.70;99.90;;;;;;5074706;28;20623;-69
2021/10/07 03:47:42;;;;;;;95.43;36.43;;;12.70;99.90;;;;;;5069096;28;20175;-67
2021/10/07 03:50:08;;;;;;;103.00;35.73;;;12.70;99.90;;;;;;5066134;28;20664;-70
2021/10/07 03:52:33;;;;;;;99.10;36.13;;;12.70;99.90;;;;;;5073311;28;20267;-68
2021/10/07 03:54:59;;;;;;;101.43;36.00;;;12.70;99.90;;;;;;5068213;28;20651;-68
2021/10/07 03:57:26;;;;;;;97.17;37.67;;;12.60;99.90;;;;;;5054469;28;20644;-69
2021/10/07 03:59:53;;;;;;;110.27;37.20;;;12.60;99.90;;;;;;5057721;28;20195;-64
2021/10/07 04:02:18;;;;;;;106.87;39.17;;;12.60;99.90;;;;;;5072596;28;20545;-64
2021/10/07 04:04:44;;;;;;;107.33;36.23;;;12.70;99.90;;;;;;5059112;28;20584;-65
2021/10/07 04:07:10;;;;;;;107.07;37.50;;;12.70;99.90;;;;;;5052779;28;20611;-65
2021/10/07 04:09:36;;;;;;;142.67;37.17;;;12.70;99.90;;;;;;5060441;28;20213;-65
2021/10/07 04:12:01;;;;;;;121.87;38.80;;;12.80;99.90;;;;;;5052885;28;20594;-64
2021/10/07 04:14:27;;;;;;;111.77;36.30;;;12.80;99.90;;;;;;5060702;28;20252;-65
2021/10/07 04:16:53;;;;;;;102.20;36.70;;;12.80;99.90;;;;;;5072626;28;20620;-65
2021/10/07 04:19:19;;;;;;;110.73;35.70;;;12.70;99.90;;;;;;5065058;28;20223;-65
2021/10/07 04:21:45;;;;;;;141.93;36.37;;;12.80;99.90;;;;;;5052463;28;20190;-65
2021/10/07 04:24:11;;;;;;;107.10;34.27;;;12.80;99.90;;;;;;5057516;28;20263;-65
2021/10/07 04:26:37;;;;;;;119.80;37.63;;;12.80;99.90;;;;;;5072343;28;20182;-65
2021/10/07 04:29:03;;;;;;;104.33;38.60;;;12.90;99.90;;;;;;5068324;28;20693;-65
2021/10/07 04:31:28;;;;;;;105.40;39.90;;;12.90;99.90;;;;;;5059587;28;20544;-65
2021/10/07 04:33:54;;;;;;;119.37;40.87;;;12.90;99.90;;;;;;5059067;28;20225;-65
2021/10/07 04:36:19;;;;;;;102.87;39.70;;;12.90;99.90;;;;;;5051967;28;20552;-65
2021/10/07 04:38:45;;;;;;;100.40;38.53;;;12.90;99.90;;;;;;5056469;28;20185;-65
2021/10/07 04:41:11;;;;;;;124.30;36.87;;;12.90;99.90;;;;;;5051873;28;20540;-65
2021/10/07 04:43:38;;;;;;;102.23;37.80;;;12.80;99.90;;;;;;5066001;28;20189;-65
2021/10/07 04:46:04;;;;;;;119.47;38.23;;;12.80;99.90;;;;;;5072089;28;20205;-64
2021/10/07 04:48:30;;;;;;;102.17;34.60;;;12.80;99.90;;;;;;5059263;28;20191;-64
2021/10/07 04:50:55;;;;;;;99.57;34.87;;;12.70;99.90;;;;;;5050452;28;20186;-65
2021/10/07 04:53:21;;;;;;;98.07;34.33;;;12.70;99.90;;;;;;5061243;28;20263;-64
2021/10/07 04:55:50;;;;;;;141.40;34.57;;;12.60;99.90;;;;;;5071846;28;20218;-64
2021/10/07 04:58:16;;;;;;;126.20;34.13;;;12.70;99.90;;;;;;5062191;28;20175;-65
2021/10/07 05:00:41;;;;;;;98.40;34.27;;;12.60;99.90;;;;;;5051559;28;20171;-65
2021/10/07 05:03:08;;;;;;;99.23;34.17;;;12.50;99.90;;;;;;5070434;28;20182;-65
2021/10/07 05:05:34;;;;;;;98.80;35.90;;;12.50;99.90;;;;;;5070780;28;20231;-65
2021/10/07 05:07:59;;;;;;;91.63;35.00;;;12.50;99.90;;;;;;5059675;28;20185;-65
2021/10/07 05:10:25;;;;;;;110.03;49.37;;;12.40;99.90;;;;;;5062081;28;20560;-65
2021/10/07 05:12:50;;;;;;;92.37;33.87;;;12.50;99.90;;;;;;5051747;28;20185;-65
2021/10/07 05:15:16;;;;;;;94.30;32.97;;;12.50;99.90;;;;;;5058531;28;20209;-65
2021/10/07 05:17:41;;;;;;;128.87;42.27;;;12.50;99.90;;;;;;5064465;28;20640;-65
2021/10/07 05:20:08;;;;;;;118.17;40.03;;;12.50;99.90;;;;;;5056439;28;20174;-65
2021/10/07 05:22:34;;;;;;;92.37;35.17;;;12.50;99.90;;;;;;5071255;28;20231;-65
2021/10/07 05:25:00;;;;;;;116.30;33.23;;;12.40;99.90;;;;;;5067570;28;20210;-65
2021/10/07 05:27:25;;;;;;;95.13;35.07;;;12.40;99.90;;;;;;5059093;28;20270;-65
2021/10/07 05:29:51;;;;;;;92.60;33.37;;;12.40;99.90;;;;;;5069093;28;20249;-65
2021/10/07 05:32:16;;;;;;;92.60;32.77;;;12.30;99.90;;;;;;5051376;28;20555;-64
2021/10/07 05:34:42;;;;;;;94.43;35.57;;;12.20;99.90;;;;;;5052322;28;20684;-64
2021/10/07 05:37:08;;;;;;;99.23;32.83;;;12.10;99.90;;;;;;5051421;28;20257;-65
2021/10/07 05:39:33;;;;;;;111.70;33.90;;;12.00;99.90;;;;;;5064932;28;20622;-65
2021/10/07 05:41:59;;;;;;;96.33;31.73;;;12.00;99.90;;;;;;5069093;28;20235;-65
2021/10/07 05:44:25;;;;;;;93.17;30.60;;;11.90;99.90;;;;;;5068548;28;20210;-65
2021/10/07 05:46:50;;;;;;;105.60;30.10;;;11.80;99.90;;;;;;5066110;28;20175;-65
2021/10/07 05:49:16;;;;;;;99.03;31.80;;;11.80;99.90;;;;;;5050965;28;20289;-65
2021/10/07 05:51:42;;;;;;;88.80;29.60;;;11.80;99.90;;;;;;5054251;28;20174;-65
2021/10/07 05:54:07;;;;;;;93.77;30.47;;;11.70;99.90;;;;;;5059132;28;20300;-65
2021/10/07 05:56:34;;;;;;;100.00;30.00;;;11.70;99.90;;;;;;5068159;28;20182;-64
2021/10/07 05:58:59;;;;;;;103.47;33.87;;;11.60;99.90;;;;;;5070967;28;20174;-65
2021/10/07 06:01:25;;;;;;;100.47;32.00;;;11.60;99.90;;;;;;5071016;28;20182;-65
2021/10/07 06:03:51;;;;;;;95.33;31.43;;;11.60;99.90;;;;;;5070122;28;20182;-65
2021/10/07 06:06:16;;;;;;;108.47;35.70;;;11.60;99.90;;;;;;5071070;28;20174;-65
2021/10/07 06:08:42;;;;;;;122.63;40.30;;;11.50;99.90;;;;;;5053140;28;20183;-65
2021/10/07 06:11:08;;;;;;;101.63;36.37;;;11.50;99.90;;;;;;5050857;28;20233;-65
2021/10/07 06:13:33;;;;;;;115.07;43.03;;;11.50;99.90;;;;;;5061405;28;20210;-64
2021/10/07 06:15:59;;;;;;;117.17;39.90;;;11.50;99.90;;;;;;5063194;28;20245;-65
2021/10/07 06:18:25;;;;;;;121.80;36.17;;;11.40;99.90;;;;;;5070687;28;20166;-64
2021/10/07 06:20:50;;;;;;;111.73;34.77;;;11.40;99.90;;;;;;5051715;28;20201;-64
2021/10/07 06:23:16;;;;;;;143.73;38.97;;;11.40;99.90;;;;;;5050811;28;20186;-64
2021/10/07 06:25:42;;;;;;;127.17;37.13;;;11.50;99.90;;;;;;5050780;28;20688;-65
2021/10/07 06:28:08;;;;;;;129.03;35.40;;;11.50;99.90;;;;;;5060245;28;20205;-64
2021/10/07 06:30:35;;;;;;;126.80;32.53;;;11.60;99.90;;;;;;5064157;28;20263;-65
2021/10/07 06:33:01;;;;;;;107.63;32.13;;;11.70;99.90;;;;;;5051299;28;20543;-65
2021/10/07 06:35:28;;;;;;;137.83;33.77;;;11.80;99.90;;;;;;5057345;28;20186;-64
2021/10/07 06:37:54;;;;;;;128.40;33.83;;;11.90;99.90;;;;;;5074557;28;20200;-64
2021/10/07 06:40:20;;;;;;;132.77;36.17;;;11.90;99.90;;;;;;5070807;28;20179;-64
2021/10/07 06:42:45;;;;;;;111.50;31.87;;;12.00;99.90;;;;;;5071485;28;20171;-64
2021/10/07 06:45:12;;;;;;;109.80;32.70;;;12.00;99.90;;;;;;5074281;28;20190;-63
2021/10/07 06:47:39;;;;;;;151.77;33.77;;;11.90;99.90;;;;;;5074088;28;20631;-64
2021/10/07 06:50:08;;;;;;;104.43;34.97;;;12.00;99.90;;;;;;5053992;28;20174;-64
2021/10/07 06:52:34;;;;;;;116.30;34.43;;;12.00;99.90;;;;;;5053917;28;20175;-64
2021/10/07 06:55:03;;;;;;;134.40;33.80;;;12.10;99.90;;;;;;5072965;28;20570;-64
2021/10/07 06:57:28;;;;;;;108.60;35.13;;;12.10;99.90;;;;;;5074018;28;20158;-65
2021/10/07 06:59:54;;;;;;;97.40;31.33;;;12.20;99.90;;;;;;5055600;28;20175;-64
2021/10/07 07:02:20;;;;;;;99.23;30.80;;;12.40;99.90;;;;;;5053770;28;20175;-64
2021/10/07 07:04:45;;;;;;;94.93;30.17;;;12.70;99.90;;;;;;5069026;28;20209;-65
2021/10/07 07:07:11;;;;;;;67.53;27.23;;;13.00;99.90;;;;;;5073961;28;20180;-65
2021/10/07 07:09:36;;;;;;;55.50;26.03;;;13.50;99.90;;;;;;5071865;28;20182;-64
2021/10/07 07:12:02;;;;;;;54.93;27.30;;;13.90;99.90;;;;;;5073766;28;20196;-64
2021/10/07 07:14:27;;;;;;;39.33;23.80;;;14.40;99.90;;;;;;5065285;28;20237;-63
2021/10/07 07:16:53;;;;;;;30.17;20.70;;;14.90;99.90;;;;;;5073832;28;20243;-65
2021/10/07 07:19:19;;;;;;;37.07;21.03;;;15.40;99.90;;;;;;5059434;28;20182;-64
2021/10/07 07:21:44;;;;;;;23.67;17.50;;;15.80;99.90;;;;;;5053589;28;20628;-64
2021/10/07 07:24:10;;;;;;;21.93;16.70;;;16.20;99.90;;;;;;5065452;28;20198;-64
2021/10/07 07:26:36;;;;;;;21.80;16.73;;;16.50;99.90;;;;;;5067360;28;20177;-65
2021/10/07 07:29:03;;;;;;;24.03;18.23;;;16.80;99.90;;;;;;5052009;28;20175;-63
2021/10/07 07:31:29;;;;;;;21.17;16.80;;;17.10;99.90;;;;;;5055340;28;20648;-64
2021/10/07 07:33:55;;;;;;;22.83;16.50;;;17.10;99.90;;;;;;5073028;28;20206;-65
2021/10/07 07:36:23;;;;;;;21.67;16.23;;;17.30;99.90;;;;;;5071615;28;20182;-65
2021/10/07 07:38:50;;;;;;;23.47;16.97;;;17.70;99.90;;;;;;5053293;28;20274;-64
2021/10/07 07:41:18;;;;;;;25.77;17.33;;;18.00;99.90;;;;;;5052998;28;20543;-65
2021/10/07 07:43:44;;;;;;;24.63;16.80;;;18.50;99.90;;;;;;5053176;28;20854;-64
2021/10/07 07:46:10;;;;;;;23.20;17.00;;;19.10;99.90;;;;;;5053154;28;20620;-64
2021/10/07 07:48:35;;;;;;;23.43;17.30;;;19.60;99.90;;;;;;5053366;28;20649;-65
2021/10/07 07:51:02;;;;;;;20.83;15.83;;;19.90;99.90;;;;;;5052769;28;20182;-65
2021/10/07 07:53:28;;;;;;;20.83;16.40;;;19.80;99.90;;;;;;5069963;28;20202;-65
2021/10/07 07:55:54;;;;;;;17.87;13.93;;;19.70;99.90;;;;;;5063613;28;20568;-64
2021/10/07 07:58:19;;;;;;;16.13;14.27;;;19.70;99.90;;;;;;5069112;28;20166;-64
2021/10/07 08:00:47;;;;;;;22.17;13.83;;;19.70;99.90;;;;;;5072404;28;20169;-64
2021/10/07 08:03:13;;;;;;;18.97;13.73;;;19.80;99.90;;;;;;5062646;28;20186;-64
2021/10/07 08:05:38;;;;;;;18.90;14.37;;;19.50;99.90;;;;;;5052073;28;20547;-65
2021/10/07 08:08:04;;;;;;;18.27;15.27;;;19.30;99.90;;;;;;5060725;28;20184;-65
2021/10/07 08:10:30;;;;;;;16.63;14.00;;;18.90;99.90;;;;;;5072171;28;20253;-64
2021/10/07 08:12:56;;;;;;;24.87;16.70;;;18.40;99.90;;;;;;5065761;28;20633;-65
2021/10/07 08:15:22;;;;;;;18.40;15.07;;;18.10;99.90;;;;;;5052429;28;20190;-64
2021/10/07 08:17:48;;;;;;;19.77;15.30;;;17.80;99.90;;;;;;5057267;28;20257;-64
2021/10/07 08:20:15;;;;;;;21.87;16.33;;;17.70;99.90;;;;;;5072162;28;20304;-63
2021/10/07 08:22:41;;;;;;;22.37;18.80;;;17.60;99.90;;;;;;5068680;28;20273;-64
2021/10/07 08:25:08;;;;;;;22.50;18.40;;;17.20;99.90;;;;;;5052414;28;20617;-64
2021/10/07 08:27:34;;;;;;;24.07;16.53;;;17.00;99.90;;;;;;5052863;28;20256;-64
2021/10/07 08:30:00;;;;;;;23.40;16.43;;;17.40;99.90;;;;;;5056925;28;20273;-64
2021/10/07 08:32:26;;;;;;;22.07;16.90;;;17.80;99.90;;;;;;5072163;28;20170;-65
2021/10/07 08:34:51;;;;;;;20.60;15.70;;;18.00;99.90;;;;;;5072005;28;20280;-65
2021/10/07 08:37:17;;;;;;;20.00;15.50;;;18.60;99.90;;;;;;5072175;28;20166;-64
2021/10/07 08:39:43;;;;;;;25.57;17.40;;;19.20;99.90;;;;;;5071875;28;20170;-65
2021/10/07 08:42:09;;;;;;;22.13;17.63;;;19.60;99.90;;;;;;5072130;28;20176;-64
2021/10/07 08:44:34;;;;;;;23.27;16.70;;;19.50;99.90;;;;;;5070897;28;20715;-64
2021/10/07 08:47:00;;;;;;;23.23;16.97;;;19.20;99.90;;;;;;5072092;28;20612;-64
2021/10/07 08:49:29;;;;;;;23.93;17.73;;;18.70;99.90;;;;;;5071618;28;20170;-64
2021/10/07 08:51:55;;;;;;;26.00;18.87;;;18.30;99.90;;;;;;5071942;28;20178;-63
2021/10/07 08:54:21;;;;;;;25.83;18.07;;;17.90;99.90;;;;;;5071689;28;20205;-63
2021/10/07 08:56:49;;;;;;;25.60;18.63;;;17.60;99.90;;;;;;5071504;28;20181;-64
2021/10/07 08:59:16;;;;;;;22.50;18.20;;;17.20;99.90;;;;;;5071791;28;20166;-64
2021/10/07 09:01:43;;;;;;;22.90;18.90;;;17.00;99.90;;;;;;5071934;28;20174;-64
2021/10/07 09:04:20;;;;;;;24.03;18.13;;;16.90;99.90;;;;;;5071192;28;20193;-64
2021/10/07 09:06:47;;;;;;;31.13;18.60;;;16.60;99.90;;;;;;5071931;28;20178;-64
2021/10/07 09:09:13;;;;;;;23.60;19.33;;;16.50;99.90;;;;;;5071788;28;20174;-64
2021/10/07 09:11:39;;;;;;;27.20;19.17;;;16.60;99.90;;;;;;5071767;28;20204;-63
2021/10/07 09:14:08;;;;;;;22.63;16.70;;;16.70;99.90;;;;;;5071809;28;20766;-66
2021/10/07 09:16:46;;;;;;;24.27;17.00;;;17.30;99.90;;;;;;5069831;28;20188;-64
2021/10/07 09:19:23;;;;;;;18.57;14.60;;;17.90;99.90;;;;;;5061449;28;20213;-65
2021/10/07 09:21:52;;;;;;;20.97;15.90;;;18.10;99.90;;;;;;5071797;28;20166;-64
2021/10/07 09:24:41;;;;;;;16.37;14.70;;;18.10;99.90;;;;;;5052932;28;20205;-64
2021/10/07 09:27:24;;;;;;;14.77;12.77;;;18.30;99.90;;;;;;5051770;28;20232;-65
2021/10/07 09:29:51;;;;;;;17.90;14.73;;;18.30;99.90;;;;;;5051056;28;20654;-64
2021/10/07 09:32:26;;;;;;;14.47;12.40;;;18.20;99.90;;;;;;5071682;28;20658;-64
2021/10/07 09:34:52;;;;;;;14.20;12.37;;;18.30;99.90;;;;;;5066995;28;20206;-64
2021/10/07 09:37:23;;;;;;;18.57;13.93;;;18.50;99.90;;;;;;5051395;28;20166;-64
2021/10/07 09:39:51;;;;;;;16.77;12.87;;;18.50;99.90;;;;;;5054399;28;20174;-64
2021/10/07 09:42:22;;;;;;;16.70;12.70;;;18.30;99.90;;;;;;5071454;28;20173;-64
2021/10/07 09:44:59;;;;;;;15.50;13.57;;;18.50;99.90;;;;;;5052594;28;20198;-65
2021/10/07 09:47:32;;;;;;;15.90;14.03;;;18.60;99.90;;;;;;5051427;28;20178;-64
2021/10/07 09:50:19;;;;;;;15.27;13.53;;;18.80;99.90;;;;;;5051412;28;20210;-64
2021/10/07 09:52:48;;;;;;;20.83;15.83;;;19.00;99.90;;;;;;5051716;28;20711;-64
2021/10/07 09:55:21;;;;;;;18.90;15.47;;;18.90;99.90;;;;;;5071759;28;20210;-64
2021/10/07 09:58:00;;;;;;;14.87;13.33;;;18.70;99.90;;;;;;5070906;28;20170;-64
2021/10/07 10:00:29;;;;;;;15.93;13.50;;;18.50;99.90;;;;;;5050860;28;20170;-64
2021/10/07 10:02:58;;;;;;;20.57;13.87;;;18.30;99.90;;;;;;5051642;28;20159;-64
2021/10/07 10:05:24;;;;;;;20.60;15.37;;;18.10;99.90;;;;;;5050339;28;20203;-64
2021/10/07 10:07:49;;;;;;;17.17;14.77;;;17.90;99.90;;;;;;5051634;28;20705;-64
2021/10/07 10:10:16;;;;;;;16.00;14.33;;;17.70;99.90;;;;;;5055022;28;20183;-64
2021/10/07 10:12:42;;;;;;;19.20;13.83;;;17.80;99.90;;;;;;5070076;28;20539;-64
2021/10/07 10:15:09;;;;;;;13.73;12.33;;;17.70;99.90;;;;;;5074871;28;20209;-64
2021/10/07 10:17:35;;;;;;;15.50;12.80;;;17.80;99.90;;;;;;5073336;28;20721;-64
2021/10/07 10:20:24;;;;;;;15.60;12.67;;;17.70;99.90;;;;;;5069758;28;20617;-64
2021/10/07 10:23:02;;;;;;;13.67;11.93;;;17.60;99.90;;;;;;5074362;28;20255;-64
2021/10/07 10:25:30;;;;;;;11.27;10.23;;;17.60;99.90;;;;;;5061581;28;20197;-64
2021/10/07 10:28:00;;;;;;;13.47;10.47;;;17.60;99.90;;;;;;5054681;28;20174;-64
2021/10/07 10:30:41;;;;;;;12.53;10.10;;;17.80;99.90;;;;;;5065792;28;20174;-64
2021/10/07 10:33:27;;;;;;;11.70;10.27;;;17.60;99.90;;;;;;5074789;28;20234;-64
2021/10/07 10:35:53;;;;;;;12.33;11.07;;;17.80;99.90;;;;;;5059659;28;20198;-64
2021/10/07 10:38:18;;;;;;;12.67;11.47;;;17.70;99.90;;;;;;5054520;28;20606;-64
2021/10/07 10:40:44;;;;;;;11.97;10.67;;;17.70;99.90;;;;;;5067199;28;20265;-64
2021/10/07 10:43:18;;;;;;;11.43;10.30;;;17.70;99.90;;;;;;5073224;28;20170;-64
2021/10/07 10:45:48;;;;;;;12.13;10.87;;;17.70;99.90;;;;;;5061479;28;20672;-64
2021/10/07 10:48:48;;;;;;;12.37;11.23;;;17.60;99.90;;;;;;5054401;28;20518;-64
2021/10/07 10:51:18;;;;;;;14.13;12.67;;;17.60;99.90;;;;;;5069993;28;20231;-64
2021/10/07 10:54:11;;;;;;;13.27;12.00;;;17.80;99.90;;;;;;5074132;28;20205;-63
2021/10/07 10:56:58;;;;;;;13.60;12.20;;;17.90;99.90;;;;;;5055484;28;20228;-64
2021/10/07 10:59:26;;;;;;;13.70;12.40;;;18.10;99.90;;;;;;5057810;28;20213;-64
2021/10/07 11:02:15;;;;;;;12.93;11.63;;;18.10;99.90;;;;;;5073866;28;20223;-64
2021/10/07 11:04:48;;;;;;;18.57;13.97;;;18.10;99.90;;;;;;5054424;28;20214;-64
2021/10/07 11:07:27;;;;;;;15.63;13.93;;;18.10;99.90;;;;;;5054104;28;20725;-64
2021/10/07 11:10:27;;;;;;;17.17;14.57;;;18.10;99.90;;;;;;5073722;28;20334;-64
2021/10/07 11:12:55;;;;;;;20.60;15.17;;;18.10;99.90;;;;;;5070714;28;20194;-64
2021/10/07 11:15:23;;;;;;;18.10;16.13;;;18.10;99.90;;;;;;5053740;28;20203;-64
2021/10/07 11:17:50;;;;;;;18.80;15.43;;;18.10;99.90;;;;;;5055438;28;20167;-64
2021/10/07 11:20:21;;;;;;;19.97;15.73;;;18.00;99.90;;;;;;5073143;28;20220;-64
2021/10/07 11:22:56;;;;;;;19.53;16.80;;;18.10;99.90;;;;;;5072836;28;20180;-64
2021/10/07 11:25:22;;;;;;;19.53;17.03;;;18.10;99.90;;;;;;5053492;28;20190;-65
2021/10/07 11:27:48;;;;;;;24.47;18.93;;;18.00;99.90;;;;;;5053658;28;20178;-64
2021/10/07 11:30:21;;;;;;;18.70;16.80;;;17.90;99.90;;;;;;5073218;28;20174;-64
2021/10/07 11:32:47;;;;;;;21.10;16.77;;;18.10;99.90;;;;;;5072737;28;20737;-64
2021/10/07 11:35:15;;;;;;;22.00;17.87;;;18.30;99.90;;;;;;5053758;28;20207;-64
2021/10/07 11:37:45;;;;;;;20.73;18.50;;;18.40;99.90;;;;;;5069168;28;20171;-64
2021/10/07 11:40:20;;;;;;;22.43;17.77;;;18.40;99.90;;;;;;5073213;28;20533;-64
2021/10/07 11:42:45;;;;;;;21.03;17.83;;;18.30;99.90;;;;;;5057049;28;20174;-64
2021/10/07 11:45:26;;;;;;;20.50;16.47;;;18.10;99.90;;;;;;5053252;28;20538;-64
2021/10/07 11:47:52;;;;;;;18.07;16.07;;;18.60;99.90;;;;;;5069024;28;20193;-64
2021/10/07 11:50:20;;;;;;;15.57;14.07;;;19.40;99.90;;;;;;5073009;28;20174;-64
2021/10/07 11:52:46;;;;;;;17.73;13.70;;;20.30;99.90;;;;;;5058324;28;20179;-64
2021/10/07 11:55:12;;;;;;;20.33;14.97;;;21.20;99.90;;;;;;5052986;28;20214;-64
2021/10/07 11:57:47;;;;;;;15.45;13.95;;;22.00;99.90;;;;;;5061683;28;20492;-64
2021/10/07 12:00:13;;;;;;;16.67;13.02;;;22.80;99.90;;;;;;5054988;28;20170;-64
2021/10/07 12:02:38;;;;;;;21.17;15.77;;;23.30;99.90;;;;;;5052835;28;20244;-64
2021/10/07 12:05:19;;;;;;;17.20;15.38;;;23.70;99.90;;;;;;5063375;28;20612;-64
2021/10/07 12:08:12;;;;;;;18.98;15.75;;;23.30;99.90;;;;;;5072776;28;20262;-65
2021/10/07 12:11:08;;;;;;;18.35;15.32;;;23.60;99.90;;;;;;5054726;28;20245;-65
2021/10/07 12:13:36;;;;;;;19.45;16.48;;;23.80;99.90;;;;;;5052612;28;20208;-64
2021/10/07 12:16:08;;;;;;;17.70;15.45;;;23.80;99.90;;;;;;5070019;28;20216;-64
2021/10/07 12:18:37;;;;;;;17.88;16.02;;;23.60;99.90;;;;;;5072646;28;20636;-64
2021/10/07 12:21:07;;;;;;;18.30;16.40;;;23.40;99.90;;;;;;5055225;28;20217;-64
2021/10/07 12:23:48;;;;;;;17.20;15.40;;;23.60;99.90;;;;;;5052552;28;20204;-64
2021/10/07 12:26:30;;;;;;;17.95;15.25;;;23.80;99.90;;;;;;5070233;28;20181;-65
2021/10/07 12:28:58;;;;;;;15.80;13.90;;;23.00;99.90;;;;;;5072359;28;20216;-64
2021/10/07 12:31:29;;;;;;;23.13;16.10;;;23.30;99.90;;;;;;5053072;28;20187;-64
2021/10/07 12:34:01;;;;;;;17.00;15.40;;;23.40;99.90;;;;;;5059862;28;20281;-65
2021/10/07 12:36:45;;;;;;;17.02;15.23;;;23.40;99.90;;;;;;5072308;28;20165;-64